Time;durP1;ratioP1;P1;durP2;ratioP2;P2;SDS_P1;SDS_P2;PMS_P1;PMS_P2;Temp;Humidity;BMP_temperature;BMP_pressure;BME280_temperature;BME280_humidity;BME280_pressure;Samples;Min_cycle;Max_cycle;Signal;HPM_P1;HPM_P2
2023/03/20 00:00:30;;;;;;;11.23;5.35;;;7.40;99.90;;;;;;5109749;28;20050;-62
2023/03/20 00:02:57;;;;;;;8.25;4.57;;;7.40;99.90;;;;;;5111027;28;20047;-63
2023/03/20 00:05:27;;;;;;;11.60;5.20;;;7.40;99.90;;;;;;5111753;28;20063;-63
2023/03/20 00:07:54;;;;;;;9.13;4.90;;;7.40;99.90;;;;;;5142587;27;20052;-62
2023/03/20 00:10:25;;;;;;;9.82;4.38;;;7.40;99.90;;;;;;5112299;28;20044;-63
2023/03/20 00:12:52;;;;;;;7.38;4.13;;;7.40;99.90;;;;;;5112050;28;20051;-63
2023/03/20 00:15:28;;;;;;;8.32;5.07;;;7.30;99.90;;;;;;5111119;28;20093;-63
2023/03/20 00:17:55;;;;;;;8.18;4.70;;;7.30;99.90;;;;;;5110822;28;20059;-62
2023/03/20 00:20:22;;;;;;;8.18;4.35;;;7.30;99.90;;;;;;5111946;28;20058;-62
2023/03/20 00:22:51;;;;;;;6.10;4.40;;;7.30;99.90;;;;;;5112851;28;20449;-64
2023/03/20 00:25:20;;;;;;;5.38;3.70;;;7.30;99.90;;;;;;5115528;28;20040;-63
2023/03/20 00:27:48;;;;;;;8.70;4.50;;;7.30;99.90;;;;;;5114078;28;20543;-63
2023/03/20 00:30:21;;;;;;;8.02;4.20;;;7.30;99.90;;;;;;5115554;28;20051;-64
2023/03/20 00:32:48;;;;;;;7.03;4.10;;;7.30;99.90;;;;;;5115581;28;20090;-62
2023/03/20 00:35:19;;;;;;;6.30;3.70;;;7.20;99.90;;;;;;5114019;28;20044;-62
2023/03/20 00:37:46;;;;;;;6.32;3.80;;;7.30;99.90;;;;;;5114555;28;20066;-63
2023/03/20 00:40:15;;;;;;;7.13;4.13;;;7.30;99.90;;;;;;5115565;27;20055;-63
2023/03/20 00:42:42;;;;;;;9.13;4.22;;;7.20;99.90;;;;;;5114776;28;20047;-62
2023/03/20 00:45:14;;;;;;;7.82;4.28;;;7.20;99.90;;;;;;5115175;27;20044;-62
2023/03/20 00:47:42;;;;;;;11.60;4.10;;;7.20;99.90;;;;;;5113611;28;20106;-63
2023/03/20 00:50:16;;;;;;;7.80;4.22;;;7.20;99.90;;;;;;5114840;28;20092;-63
2023/03/20 00:52:44;;;;;;;9.25;4.60;;;7.20;99.90;;;;;;5114250;28;20063;-63
2023/03/20 00:55:11;;;;;;;5.85;4.20;;;7.20;99.90;;;;;;5115269;28;20128;-63
2023/03/20 00:57:43;;;;;;;11.63;4.68;;;7.20;99.90;;;;;;5114571;28;20123;-62
2023/03/20 01:00:26;;;;;;;6.30;4.30;;;7.20;99.90;;;;;;5113789;28;20079;-63
2023/03/20 01:02:54;;;;;;;6.63;4.18;;;7.30;99.90;;;;;;5113001;28;20050;-62
2023/03/20 01:05:21;;;;;;;10.02;4.50;;;7.30;99.90;;;;;;5114673;28;20046;-62
2023/03/20 01:07:49;;;;;;;9.57;3.80;;;7.20;99.90;;;;;;5113948;28;20062;-63
2023/03/20 01:10:17;;;;;;;6.45;3.92;;;7.20;99.90;;;;;;5113210;28;20074;-63
2023/03/20 01:12:47;;;;;;;9.95;4.20;;;7.20;99.90;;;;;;5112979;28;20096;-63
2023/03/20 01:15:21;;;;;;;9.07;4.33;;;7.30;99.90;;;;;;5114810;28;20051;-63
2023/03/20 01:17:49;;;;;;;6.82;4.25;;;7.20;99.90;;;;;;5114332;28;20043;-63
2023/03/20 01:20:20;;;;;;;9.75;4.90;;;7.20;99.90;;;;;;5114708;28;20154;-63
2023/03/20 01:22:47;;;;;;;8.20;4.68;;;7.20;99.90;;;;;;5112671;28;20487;-62
2023/03/20 01:25:15;;;;;;;7.03;4.10;;;7.20;99.90;;;;;;5112474;28;20052;-61
2023/03/20 01:27:48;;;;;;;12.05;4.57;;;7.20;99.90;;;;;;5112876;28;20444;-62
2023/03/20 01:30:19;;;;;;;6.15;3.67;;;7.30;99.90;;;;;;5113537;28;20404;-63
2023/03/20 01:32:47;;;;;;;;;;;7.20;99.90;;;;;;5114226;28;20070;-63
2023/03/20 01:35:16;;;;;;;7.40;3.95;;;7.20;99.90;;;;;;5113830;28;20010;-63
2023/03/20 01:37:43;;;;;;;12.95;5.13;;;7.20;99.90;;;;;;5114222;28;20050;-62
2023/03/20 01:40:24;;;;;;;11.75;4.47;;;7.30;99.90;;;;;;5113981;27;20043;-63
2023/03/20 01:42:52;;;;;;;11.80;5.20;;;7.20;99.90;;;;;;5113729;28;20044;-63
2023/03/20 01:45:23;;;;;;;9.25;4.57;;;7.20;99.90;;;;;;5112404;28;20082;-62
2023/03/20 01:47:51;;;;;;;9.35;4.88;;;7.20;99.90;;;;;;5112292;28;20445;-62
2023/03/20 01:50:30;;;;;;;11.38;5.10;;;7.20;99.90;;;;;;5113953;28;20093;-62
2023/03/20 01:53:07;;;;;;;10.18;5.03;;;7.20;99.90;;;;;;5113713;28;20043;-64
2023/03/20 01:55:35;;;;;;;9.43;5.03;;;7.20;99.90;;;;;;5112756;28;20403;-63
2023/03/20 01:58:07;;;;;;;12.82;5.00;;;7.20;99.90;;;;;;5113107;28;20048;-62
2023/03/20 02:00:36;;;;;;;11.23;4.90;;;7.20;99.90;;;;;;5112156;28;20051;-63
2023/03/20 02:03:06;;;;;;;11.70;5.80;;;7.20;99.90;;;;;;5114193;28;20043;-62
2023/03/20 02:05:33;;;;;;;15.05;5.40;;;7.20;99.90;;;;;;5112283;28;20059;-64
2023/03/20 02:08:11;;;;;;;12.23;6.82;;;7.20;99.90;;;;;;5113306;28;20510;-62
2023/03/20 02:10:39;;;;;;;11.23;5.88;;;7.20;99.90;;;;;;5113809;28;20151;-63
2023/03/20 02:13:09;;;;;;;10.88;5.47;;;7.20;99.90;;;;;;5113605;28;20113;-62
2023/03/20 02:15:52;;;;;;;13.30;6.72;;;7.20;99.90;;;;;;5113297;28;20135;-63
2023/03/20 02:18:19;;;;;;;13.02;6.10;;;7.20;99.90;;;;;;5113852;28;20047;-62
2023/03/20 02:20:56;;;;;;;14.43;6.65;;;7.20;99.90;;;;;;5113142;28;20047;-63
2023/03/20 02:24:08;;;;;;;13.15;6.80;;;7.20;99.90;;;;;;5112679;28;20407;-63
2023/03/20 02:26:46;;;;;;;16.35;6.40;;;7.20;99.90;;;;;;5100691;28;20491;-61
2023/03/20 02:29:56;;;;;;;14.77;6.85;;;7.30;99.90;;;;;;5111544;28;20066;-63
2023/03/20 02:33:02;;;;;;;10.45;6.00;;;7.30;99.90;;;;;;5113347;28;20048;-64
2023/03/20 02:36:03;;;;;;;13.65;6.43;;;7.30;99.90;;;;;;5112712;28;20414;-63
2023/03/20 02:39:00;;;;;;;14.65;6.10;;;7.30;99.90;;;;;;5088660;28;20047;-64
2023/03/20 02:41:32;;;;;;;12.18;5.93;;;7.30;99.90;;;;;;5105049;28;20055;-63
2023/03/20 02:44:06;;;;;;;13.07;6.47;;;7.30;99.90;;;;;;5109521;28;20495;-63
2023/03/20 02:46:43;;;;;;;16.27;7.45;;;7.30;99.90;;;;;;5110983;28;20051;-62
2023/03/20 02:49:21;;;;;;;14.35;7.47;;;7.30;99.90;;;;;;5112908;28;20051;-63
2023/03/20 02:51:55;;;;;;;16.25;7.35;;;7.30;99.90;;;;;;5110383;28;20052;-62
2023/03/20 02:54:28;;;;;;;18.52;6.85;;;7.30;99.90;;;;;;5113191;28;20411;-62
2023/03/20 02:57:03;;;;;;;15.57;7.88;;;7.40;99.90;;;;;;5110452;28;20081;-62
2023/03/20 02:59:33;;;;;;;13.88;6.57;;;7.30;99.90;;;;;;5113085;28;20054;-63
2023/03/20 03:02:06;;;;;;;13.77;6.70;;;7.40;99.90;;;;;;5111744;28;20134;-63
2023/03/20 03:04:36;;;;;;;19.50;6.88;;;7.30;99.90;;;;;;5112188;28;20052;-62
2023/03/20 03:07:05;;;;;;;16.90;6.37;;;7.40;99.90;;;;;;5109346;28;20075;-63
2023/03/20 03:09:38;;;;;;;15.88;6.40;;;7.40;99.90;;;;;;5111106;28;20487;-62
2023/03/20 03:12:11;;;;;;;18.02;6.38;;;7.40;99.90;;;;;;5111464;28;20051;-63
2023/03/20 03:14:43;;;;;;;12.25;6.38;;;7.40;99.90;;;;;;5111419;28;20047;-63
2023/03/20 03:17:13;;;;;;;13.73;6.75;;;7.40;99.90;;;;;;5111118;28;20044;-64
2023/03/20 03:19:42;;;;;;;15.60;6.53;;;7.40;99.90;;;;;;5109653;28;20043;-63
2023/03/20 03:22:11;;;;;;;13.67;6.87;;;7.40;99.90;;;;;;5111621;28;20059;-62
2023/03/20 03:24:43;;;;;;;16.20;7.95;;;7.40;99.90;;;;;;5111011;28;20290;-63
2023/03/20 03:27:17;;;;;;;16.63;7.25;;;7.40;99.90;;;;;;5110518;28;20078;-62
2023/03/20 03:29:49;;;;;;;12.52;7.10;;;7.40;99.90;;;;;;5110621;28;20086;-64
2023/03/20 03:32:25;;;;;;;13.07;7.50;;;7.40;99.90;;;;;;5110942;28;20463;-62
2023/03/20 03:34:52;;;;;;;16.85;7.70;;;7.40;99.90;;;;;;5112628;28;20105;-62
2023/03/20 03:37:28;;;;;;;16.50;7.63;;;7.40;99.90;;;;;;5111135;28;20047;-63
2023/03/20 03:40:05;;;;;;;14.00;7.72;;;7.40;99.90;;;;;;5111891;28;20051;-62
2023/03/20 03:42:37;;;;;;;16.05;7.60;;;7.40;99.90;;;;;;5111405;28;20051;-63
2023/03/20 03:45:08;;;;;;;16.08;6.95;;;7.40;99.90;;;;;;5110711;28;20059;-62
2023/03/20 03:47:39;;;;;;;16.60;7.15;;;7.40;99.90;;;;;;5111162;28;20040;-62
2023/03/20 03:50:08;;;;;;;;;;;7.40;99.90;;;;;;5110842;28;20055;-63
2023/03/20 03:52:37;;;;;;;13.02;7.30;;;7.50;99.90;;;;;;5111791;28;19973;-64
2023/03/20 03:55:08;;;;;;;12.52;6.30;;;7.50;99.90;;;;;;5111996;28;20518;-63
2023/03/20 03:57:42;;;;;;;16.05;7.18;;;7.50;99.90;;;;;;5115122;28;20039;-63
2023/03/20 04:00:13;;;;;;;16.45;6.78;;;7.50;99.90;;;;;;5115797;28;20051;-63
2023/03/20 04:02:41;;;;;;;13.73;7.00;;;7.50;99.90;;;;;;5116574;28;20055;-63
2023/03/20 04:05:10;;;;;;;15.10;6.93;;;7.50;99.90;;;;;;5114940;28;20495;-62
2023/03/20 04:07:37;;;;;;;12.90;6.68;;;7.50;99.90;;;;;;5114228;28;20047;-61
2023/03/20 04:10:06;;;;;;;13.10;6.90;;;7.50;99.90;;;;;;5116407;28;20048;-62
2023/03/20 04:12:36;;;;;;;14.15;6.93;;;7.50;99.90;;;;;;5114152;28;20044;-63
2023/03/20 04:15:05;;;;;;;10.63;6.20;;;7.50;99.90;;;;;;5114935;28;20058;-62
2023/03/20 04:17:31;;;;;;;11.32;6.30;;;7.50;99.90;;;;;;5114972;28;20044;-62
2023/03/20 04:19:58;;;;;;;12.75;7.35;;;7.50;99.90;;;;;;5115346;28;20040;-62
2023/03/20 04:22:25;;;;;;;13.68;6.72;;;7.50;99.90;;;;;;5114925;28;20051;-64
2023/03/20 04:24:52;;;;;;;14.15;6.25;;;7.50;99.90;;;;;;5114844;28;20047;-62
2023/03/20 04:27:21;;;;;;;14.35;7.07;;;7.60;99.90;;;;;;5115251;28;20047;-62
2023/03/20 04:29:48;;;;;;;14.02;6.63;;;7.50;99.90;;;;;;5115738;28;20495;-63
2023/03/20 04:32:15;;;;;;;12.75;6.90;;;7.50;99.90;;;;;;5115710;28;20499;-62
2023/03/20 04:34:42;;;;;;;13.02;5.55;;;7.60;99.90;;;;;;5114935;28;20088;-62
2023/03/20 04:37:09;;;;;;;13.02;6.43;;;7.60;99.90;;;;;;5115735;28;20066;-62
2023/03/20 04:39:36;;;;;;;16.83;6.55;;;7.50;99.90;;;;;;5115804;28;20403;-62
2023/03/20 04:42:04;;;;;;;12.80;6.78;;;7.50;99.90;;;;;;5113879;28;20048;-62
2023/03/20 04:44:32;;;;;;;10.98;6.57;;;7.50;99.90;;;;;;5113528;28;20158;-62
2023/03/20 04:47:00;;;;;;;16.40;8.65;;;7.50;99.90;;;;;;5115492;28;20051;-62
2023/03/20 04:49:27;;;;;;;12.93;7.95;;;7.50;99.90;;;;;;5111733;28;20059;-62
2023/03/20 04:51:54;;;;;;;16.27;6.75;;;7.60;99.90;;;;;;5114335;28;20055;-62
2023/03/20 04:54:22;;;;;;;10.55;6.63;;;7.50;99.90;;;;;;5111874;28;20051;-63
2023/03/20 04:56:49;;;;;;;13.95;7.90;;;7.50;99.90;;;;;;5114822;28;20043;-62
2023/03/20 04:59:15;;;;;;;13.23;7.28;;;7.50;99.90;;;;;;5114173;28;20487;-63
2023/03/20 05:01:44;;;;;;;17.00;7.95;;;7.60;99.90;;;;;;5113843;28;20054;-62
2023/03/20 05:04:11;;;;;;;14.93;7.75;;;7.60;99.90;;;;;;5114864;28;20050;-62
2023/03/20 05:06:38;;;;;;;16.98;7.65;;;7.50;99.90;;;;;;5113376;28;20062;-63
2023/03/20 05:09:06;;;;;;;13.20;7.82;;;7.60;99.90;;;;;;5110166;28;20470;-62
2023/03/20 05:11:33;;;;;;;15.88;7.65;;;7.70;99.90;;;;;;5114942;28;20044;-63
2023/03/20 05:14:00;;;;;;;14.73;8.02;;;7.50;99.90;;;;;;5115027;28;20051;-62
2023/03/20 05:16:27;;;;;;;12.93;7.38;;;7.60;99.90;;;;;;5113919;28;20051;-63
2023/03/20 05:18:55;;;;;;;14.98;7.97;;;7.50;99.90;;;;;;5108173;28;20051;-63
2023/03/20 05:21:22;;;;;;;13.75;8.32;;;7.60;99.90;;;;;;5107325;28;20043;-64
2023/03/20 05:23:49;;;;;;;16.13;8.02;;;7.60;99.90;;;;;;5110326;28;20047;-63
2023/03/20 05:26:16;;;;;;;14.93;7.75;;;7.60;99.90;;;;;;5113214;28;20510;-63
2023/03/20 05:28:43;;;;;;;20.00;8.25;;;7.60;99.90;;;;;;5106896;28;20051;-63
2023/03/20 05:31:10;;;;;;;20.73;7.32;;;7.60;99.90;;;;;;5112672;28;20061;-62
2023/03/20 05:33:37;;;;;;;15.27;7.90;;;7.60;99.90;;;;;;5110388;28;20050;-62
2023/03/20 05:36:06;;;;;;;14.85;7.47;;;7.60;99.90;;;;;;5112617;28;20051;-63
2023/03/20 05:38:33;;;;;;;12.32;7.15;;;7.60;99.90;;;;;;5111708;28;20047;-62
2023/03/20 05:41:01;;;;;;;15.00;7.20;;;7.60;99.90;;;;;;5112794;28;20092;-63
2023/03/20 05:43:29;;;;;;;12.85;7.25;;;7.60;99.90;;;;;;5112602;28;20052;-62
2023/03/20 05:45:56;;;;;;;15.95;7.40;;;7.70;99.90;;;;;;5112976;28;20079;-61
2023/03/20 05:48:23;;;;;;;13.82;7.20;;;7.60;99.90;;;;;;5111903;28;20039;-62
2023/03/20 05:50:50;;;;;;;13.98;7.15;;;7.60;99.90;;;;;;5111573;28;20055;-62
2023/03/20 05:53:18;;;;;;;12.73;7.15;;;7.50;99.90;;;;;;5111187;28;20052;-64
2023/03/20 05:55:45;;;;;;;13.35;7.78;;;7.50;99.90;;;;;;5111149;28;20495;-63
2023/03/20 05:58:12;;;;;;;15.07;7.03;;;7.60;99.90;;;;;;5112296;28;20048;-64
2023/03/20 06:00:40;;;;;;;13.43;7.85;;;7.50;99.90;;;;;;5111688;28;20377;-62
2023/03/20 06:03:06;;;;;;;17.92;7.72;;;7.60;99.90;;;;;;5112822;28;20403;-63
2023/03/20 06:05:34;;;;;;;17.67;8.25;;;7.60;99.90;;;;;;5109591;28;20502;-64
2023/03/20 06:08:01;;;;;;;11.98;7.18;;;7.60;99.90;;;;;;5111820;28;20046;-63
2023/03/20 06:10:29;;;;;;;13.63;7.05;;;7.50;99.90;;;;;;5109812;28;20047;-63
2023/03/20 06:12:59;;;;;;;11.27;6.35;;;7.50;99.90;;;;;;5112786;28;20082;-63
2023/03/20 06:15:27;;;;;;;11.48;6.93;;;7.60;99.90;;;;;;5111022;28;20139;-63
2023/03/20 06:17:54;;;;;;;14.55;7.13;;;7.50;99.90;;;;;;5113105;28;20050;-63
2023/03/20 06:20:21;;;;;;;15.10;7.40;;;7.50;99.90;;;;;;5108928;28;20047;-62
2023/03/20 06:22:48;;;;;;;13.50;7.15;;;7.60;99.90;;;;;;5112148;28;20051;-63
2023/03/20 06:25:15;;;;;;;13.30;7.35;;;7.60;99.90;;;;;;5107167;28;20050;-63
2023/03/20 06:27:43;;;;;;;15.38;7.40;;;7.60;99.90;;;;;;5110899;28;20051;-62
2023/03/20 06:30:11;;;;;;;12.93;6.88;;;7.60;99.90;;;;;;5107689;28;20047;-63
2023/03/20 06:32:38;;;;;;;16.05;8.20;;;7.60;99.90;;;;;;5111164;28;20063;-63
2023/03/20 06:35:06;;;;;;;15.40;9.15;;;7.70;99.90;;;;;;5106458;28;20043;-62
2023/03/20 06:37:34;;;;;;;12.70;6.40;;;7.70;99.90;;;;;;5111588;28;20043;-62
2023/03/20 06:40:01;;;;;;;13.57;7.95;;;7.70;99.90;;;;;;5110391;28;20077;-61
2023/03/20 06:42:27;;;;;;;15.38;8.15;;;7.80;99.90;;;;;;5109517;28;20164;-62
2023/03/20 06:44:56;;;;;;;14.35;8.07;;;7.80;99.90;;;;;;5109985;28;20526;-62
2023/03/20 06:47:23;;;;;;;12.30;7.50;;;7.80;99.90;;;;;;5110763;28;20044;-62
2023/03/20 06:49:50;;;;;;;22.02;7.95;;;7.70;99.90;;;;;;5109994;28;20071;-62
2023/03/20 06:52:18;;;;;;;13.15;7.75;;;7.80;99.90;;;;;;5107373;28;20083;-62
2023/03/20 06:54:46;;;;;;;15.05;7.80;;;7.80;99.90;;;;;;5110657;28;20434;-61
2023/03/20 06:57:14;;;;;;;13.30;8.05;;;7.80;99.90;;;;;;5109467;28;20051;-62
2023/03/20 06:59:41;;;;;;;16.08;8.57;;;7.90;99.90;;;;;;5112265;28;20047;-62
2023/03/20 07:02:10;;;;;;;12.82;7.68;;;7.90;99.90;;;;;;5109253;28;20058;-62
2023/03/20 07:04:37;;;;;;;13.50;8.05;;;7.90;99.90;;;;;;5111965;28;20043;-62
2023/03/20 07:07:04;;;;;;;16.85;8.38;;;8.00;99.90;;;;;;5110149;28;20411;-61
2023/03/20 07:09:31;;;;;;;17.63;8.75;;;8.00;99.90;;;;;;5109833;28;20082;-61
2023/03/20 07:11:58;;;;;;;14.50;8.30;;;8.10;99.90;;;;;;5108409;28;20556;-61
2023/03/20 07:14:25;;;;;;;21.80;9.75;;;8.10;99.90;;;;;;5110013;28;20576;-61
2023/03/20 07:16:53;;;;;;;14.95;9.18;;;8.10;99.90;;;;;;5108922;28;20047;-61
2023/03/20 07:19:21;;;;;;;13.73;8.60;;;8.20;99.90;;;;;;5103337;28;20036;-62
2023/03/20 07:21:48;;;;;;;16.05;8.52;;;8.20;99.90;;;;;;5108357;28;20506;-62
2023/03/20 07:24:15;;;;;;;17.55;7.80;;;8.30;99.90;;;;;;5109184;28;20179;-62
2023/03/20 07:26:42;;;;;;;16.52;8.93;;;8.40;99.90;;;;;;5110765;28;20054;-62
2023/03/20 07:29:09;;;;;;;11.88;8.20;;;8.50;99.90;;;;;;5108381;28;20534;-62
2023/03/20 07:31:36;;;;;;;14.00;7.63;;;8.70;99.90;;;;;;5110043;28;20047;-61
2023/03/20 07:34:03;;;;;;;14.27;7.30;;;9.00;99.90;;;;;;5109873;28;20051;-62
2023/03/20 07:36:31;;;;;;;16.58;8.88;;;9.20;99.90;;;;;;5110197;28;20054;-62
2023/03/20 07:38:58;;;;;;;16.45;8.77;;;9.20;99.90;;;;;;5107781;28;20040;-62
2023/03/20 07:41:25;;;;;;;15.23;8.70;;;9.30;99.90;;;;;;5108859;28;20487;-62
2023/03/20 07:43:52;;;;;;;18.45;9.30;;;9.30;99.90;;;;;;5109044;28;20040;-62
2023/03/20 07:46:19;;;;;;;14.13;7.75;;;9.30;99.90;;;;;;5107481;28;20487;-62
2023/03/20 07:48:46;;;;;;;14.85;8.80;;;9.30;99.90;;;;;;5108761;28;20051;-63
2023/03/20 07:51:13;;;;;;;20.52;8.30;;;9.30;99.90;;;;;;5106818;28;20058;-62
2023/03/20 07:53:41;;;;;;;15.48;9.07;;;9.20;99.90;;;;;;5108502;28;20511;-63
2023/03/20 07:56:09;;;;;;;18.60;8.88;;;9.20;99.90;;;;;;5109519;28;20058;-63
2023/03/20 07:58:36;;;;;;;16.00;9.02;;;9.20;99.90;;;;;;5108627;28;20063;-63
2023/03/20 08:01:03;;;;;;;14.63;8.90;;;9.20;99.90;;;;;;5110411;28;20384;-63
2023/03/20 08:03:31;;;;;;;17.50;9.45;;;9.10;99.90;;;;;;5109603;28;20048;-63
2023/03/20 08:05:58;;;;;;;17.00;8.85;;;9.20;99.90;;;;;;5110601;28;20051;-61
2023/03/20 08:08:25;;;;;;;19.15;9.18;;;9.40;99.90;;;;;;5109182;28;20488;-62
2023/03/20 08:10:53;;;;;;;15.77;8.77;;;9.40;99.90;;;;;;5110512;28;20044;-61
2023/03/20 08:13:20;;;;;;;15.73;9.10;;;9.40;99.90;;;;;;5108847;28;20054;-62
2023/03/20 08:15:47;;;;;;;17.35;8.65;;;9.40;99.90;;;;;;5108931;28;20059;-62
2023/03/20 08:18:14;;;;;;;16.52;8.55;;;9.40;99.90;;;;;;5110211;28;20502;-62
2023/03/20 08:20:41;;;;;;;18.15;8.73;;;9.40;99.90;;;;;;5108805;28;20047;-62
2023/03/20 08:23:08;;;;;;;16.05;9.13;;;9.30;99.90;;;;;;5108667;28;20060;-62
2023/03/20 08:25:35;;;;;;;14.70;8.23;;;9.30;99.90;;;;;;5109384;28;20040;-62
2023/03/20 08:28:04;;;;;;;17.90;9.10;;;9.30;99.90;;;;;;5108949;28;20127;-62
2023/03/20 08:30:31;;;;;;;18.15;8.23;;;9.40;99.90;;;;;;5108248;28;20047;-62
2023/03/20 08:32:58;;;;;;;14.77;8.68;;;9.40;99.90;;;;;;5111369;28;20513;-63
2023/03/20 08:35:25;;;;;;;16.08;9.70;;;9.40;99.90;;;;;;5105719;28;20043;-63
2023/03/20 08:37:52;;;;;;;15.18;7.88;;;9.30;99.90;;;;;;5109708;28;20479;-62
2023/03/20 08:40:19;;;;;;;15.57;8.63;;;9.30;99.90;;;;;;5102593;28;20051;-63
2023/03/20 08:42:46;;;;;;;15.10;8.77;;;9.30;99.90;;;;;;5111219;28;20044;-62
2023/03/20 08:45:15;;;;;;;13.93;8.52;;;9.40;99.90;;;;;;5107684;28;20047;-61
2023/03/20 08:47:42;;;;;;;15.02;9.27;;;9.40;99.90;;;;;;5112239;28;20050;-63
2023/03/20 08:50:11;;;;;;;21.00;8.65;;;9.40;99.90;;;;;;5110123;28;20043;-63
2023/03/20 08:52:42;;;;;;;23.58;8.75;;;9.50;99.90;;;;;;5107294;28;20060;-62
2023/03/20 08:55:10;;;;;;;13.43;7.93;;;9.50;99.90;;;;;;5109048;28;20062;-62
2023/03/20 08:57:37;;;;;;;14.40;8.32;;;9.60;99.90;;;;;;5113848;28;20456;-62
2023/03/20 09:00:06;;;;;;;18.27;9.07;;;9.80;99.90;;;;;;5111975;28;20097;-61
2023/03/20 09:02:34;;;;;;;16.60;9.40;;;9.80;99.90;;;;;;5108983;28;20047;-62
2023/03/20 09:05:02;;;;;;;16.65;9.45;;;9.80;99.90;;;;;;5113093;28;20172;-62
2023/03/20 09:07:28;;;;;;;18.00;9.10;;;9.80;99.90;;;;;;5112320;28;20579;-62
2023/03/20 09:09:56;;;;;;;15.63;8.65;;;10.00;99.90;;;;;;5113426;28;20070;-62
2023/03/20 09:12:23;;;;;;;15.32;8.65;;;10.20;99.90;;;;;;5111304;28;20077;-62
2023/03/20 09:14:49;;;;;;;14.57;8.38;;;10.40;99.90;;;;;;5112359;28;20097;-62
2023/03/20 09:17:16;;;;;;;16.65;8.52;;;10.50;99.90;;;;;;5107305;28;20504;-62
2023/03/20 09:19:45;;;;;;;11.43;7.32;;;10.80;99.90;;;;;;5112042;28;20048;-62
2023/03/20 09:22:13;;;;;;;16.63;7.55;;;10.90;99.90;;;;;;5109844;28;20112;-62
2023/03/20 09:24:40;;;;;;;14.43;8.57;;;11.00;99.90;;;;;;5112089;28;20047;-62
2023/03/20 09:27:07;;;;;;;12.13;6.90;;;11.20;99.90;;;;;;5113493;28;20083;-62
2023/03/20 09:29:34;;;;;;;17.73;7.85;;;11.10;99.90;;;;;;5112956;28;20514;-62
2023/03/20 09:32:01;;;;;;;12.20;7.53;;;11.00;99.90;;;;;;5113085;28;20566;-62
2023/03/20 09:34:28;;;;;;;19.80;8.07;;;10.80;99.90;;;;;;5114581;28;20058;-62
2023/03/20 09:36:56;;;;;;;13.52;7.05;;;10.70;99.90;;;;;;5112598;28;20100;-62
2023/03/20 09:39:23;;;;;;;14.45;7.97;;;10.70;99.90;;;;;;5114405;28;20098;-62
2023/03/20 09:41:51;;;;;;;15.27;7.97;;;10.70;99.90;;;;;;5114296;28;20044;-63
2023/03/20 09:44:31;;;;;;;13.55;8.00;;;10.70;99.90;;;;;;5112889;28;20100;-62
2023/03/20 09:47:08;;;;;;;16.77;8.23;;;10.80;99.90;;;;;;5114249;28;20076;-63
2023/03/20 09:49:45;;;;;;;18.02;7.88;;;10.90;99.90;;;;;;5112930;28;20049;-62
2023/03/20 09:52:21;;;;;;;14.98;7.95;;;11.00;99.90;;;;;;5112438;28;20047;-63
2023/03/20 09:54:51;;;;;;;14.38;7.57;;;11.20;99.90;;;;;;5113566;28;20179;-62
2023/03/20 09:57:23;;;;;;;13.95;7.78;;;11.30;99.90;;;;;;5114157;28;20515;-62
2023/03/20 09:59:55;;;;;;;14.77;6.82;;;11.30;99.90;;;;;;5112370;28;20743;-63
2023/03/20 10:02:36;;;;;;;11.60;7.57;;;11.50;99.90;;;;;;5114112;28;20039;-63
2023/03/20 10:05:14;;;;;;;15.15;7.63;;;11.60;99.90;;;;;;5111977;28;20130;-62
2023/03/20 10:07:43;;;;;;;14.80;8.10;;;11.90;99.90;;;;;;5112191;28;20052;-62
2023/03/20 10:10:13;;;;;;;18.02;7.53;;;12.10;99.90;;;;;;5112358;28;20048;-63
2023/03/20 10:13:04;;;;;;;17.43;8.33;;;12.20;99.90;;;;;;5113585;28;20046;-63
2023/03/20 10:15:43;;;;;;;12.40;7.53;;;11.90;99.90;;;;;;5112361;28;20058;-62
2023/03/20 10:18:18;;;;;;;15.02;7.47;;;12.00;99.90;;;;;;5112691;28;20063;-62
2023/03/20 10:20:53;;;;;;;17.98;8.20;;;11.80;99.90;;;;;;5112912;28;20065;-62
2023/03/20 10:23:30;;;;;;;13.95;7.18;;;11.40;99.90;;;;;;5112557;28;20431;-63
2023/03/20 10:26:03;;;;;;;16.60;8.30;;;11.60;99.90;;;;;;5111753;28;20054;-62
2023/03/20 10:28:34;;;;;;;15.00;7.75;;;11.60;99.90;;;;;;5113436;28;20048;-62
2023/03/20 10:31:14;;;;;;;17.92;7.25;;;11.30;99.90;;;;;;5113335;28;20123;-62
2023/03/20 10:33:53;;;;;;;13.40;7.63;;;11.50;99.90;;;;;;5112951;28;20050;-62
2023/03/20 10:36:33;;;;;;;20.73;7.82;;;11.40;99.90;;;;;;5112184;28;20043;-62
2023/03/20 10:39:08;;;;;;;17.90;8.20;;;11.40;99.90;;;;;;5112203;28;20084;-62
2023/03/20 10:41:37;;;;;;;14.63;7.97;;;11.40;99.90;;;;;;5111548;28;20067;-62
2023/03/20 10:44:07;;;;;;;16.65;8.40;;;11.30;99.90;;;;;;5113414;28;20157;-62
2023/03/20 10:46:38;;;;;;;16.27;7.70;;;11.20;99.90;;;;;;5111873;28;20047;-62
2023/03/20 10:49:10;;;;;;;15.00;7.93;;;11.40;99.90;;;;;;5111472;28;20066;-62
2023/03/20 10:51:41;;;;;;;11.57;7.38;;;11.60;99.90;;;;;;5111658;28;20051;-62
2023/03/20 10:54:13;;;;;;;;;;;11.80;99.90;;;;;;5111500;28;20051;-62
2023/03/20 10:56:46;;;;;;;14.32;8.00;;;11.70;99.90;;;;;;5111943;28;20379;-62
2023/03/20 10:59:20;;;;;;;12.77;6.80;;;11.70;99.90;;;;;;5113064;28;20044;-62
2023/03/20 11:01:47;;;;;;;12.40;6.68;;;11.70;99.90;;;;;;5112363;28;20044;-62
2023/03/20 11:04:14;;;;;;;17.38;7.30;;;11.50;99.90;;;;;;5112814;28;20066;-62
2023/03/20 11:06:47;;;;;;;14.38;7.63;;;11.30;99.90;;;;;;5109559;28;20054;-62
2023/03/20 11:09:21;;;;;;;25.30;8.20;;;11.10;99.90;;;;;;5110995;28;20081;-62
2023/03/20 11:11:51;;;;;;;14.75;7.85;;;11.00;99.90;;;;;;5112643;28;20419;-63
2023/03/20 11:14:20;;;;;;;13.40;7.07;;;11.00;99.90;;;;;;5112475;28;20118;-63
2023/03/20 11:16:52;;;;;;;13.63;7.30;;;10.80;99.90;;;;;;5111680;28;20048;-62
2023/03/20 11:19:20;;;;;;;10.25;7.05;;;10.90;99.90;;;;;;5110718;28;20043;-63
2023/03/20 11:21:49;;;;;;;13.10;6.30;;;10.80;99.90;;;;;;5110665;28;20112;-62
2023/03/20 11:24:27;;;;;;;13.75;6.60;;;10.90;99.90;;;;;;5110862;28;20052;-63
2023/03/20 11:27:04;;;;;;;12.18;6.53;;;10.90;99.90;;;;;;5112219;28;20491;-63
2023/03/20 11:29:34;;;;;;;9.38;6.00;;;10.80;99.90;;;;;;5110446;28;20047;-63
2023/03/20 11:32:07;;;;;;;15.20;7.20;;;10.80;99.90;;;;;;5112368;28;20097;-61
2023/03/20 11:34:37;;;;;;;15.88;6.50;;;10.70;99.90;;;;;;5111513;28;20422;-63
2023/03/20 11:37:19;;;;;;;10.75;6.55;;;10.50;99.90;;;;;;5111875;28;20416;-63
2023/03/20 11:39:58;;;;;;;12.68;6.40;;;10.60;99.90;;;;;;5112593;28;20089;-63
2023/03/20 11:42:26;;;;;;;10.05;5.50;;;10.70;99.90;;;;;;5112426;28;20040;-62
2023/03/20 11:45:01;;;;;;;8.82;5.40;;;10.60;99.90;;;;;;5109496;28;20044;-62
2023/03/20 11:47:33;;;;;;;14.15;6.07;;;10.50;99.90;;;;;;5109983;28;20048;-62
2023/03/20 11:50:01;;;;;;;16.10;6.03;;;10.50;99.90;;;;;;5111821;28;20174;-62
2023/03/20 11:52:32;;;;;;;9.50;5.50;;;10.50;99.90;;;;;;5111227;28;20576;-62
2023/03/20 11:55:05;;;;;;;9.32;5.88;;;10.40;99.90;;;;;;5110292;28;20132;-64
2023/03/20 11:57:34;;;;;;;10.85;5.70;;;10.40;99.90;;;;;;5111759;28;20043;-62
2023/03/20 12:00:07;;;;;;;12.15;6.00;;;10.30;99.90;;;;;;5112456;28;20141;-63
2023/03/20 12:02:36;;;;;;;9.55;5.05;;;10.30;99.90;;;;;;5109703;28;20056;-63
2023/03/20 12:05:27;;;;;;;9.65;4.95;;;10.20;99.90;;;;;;5107954;28;20044;-64
2023/03/20 12:07:57;;;;;;;12.15;5.70;;;10.20;99.90;;;;;;5108624;28;20048;-62
2023/03/20 12:10:30;;;;;;;9.90;5.30;;;10.10;99.90;;;;;;5112183;28;20419;-62
2023/03/20 12:13:02;;;;;;;8.85;3.55;;;10.20;99.90;;;;;;5110180;28;20673;-62
2023/03/20 12:15:32;;;;;;;8.00;3.97;;;10.10;99.90;;;;;;5112007;28;20052;-62
2023/03/20 12:18:03;;;;;;;14.95;4.40;;;10.00;99.90;;;;;;5110335;28;20052;-62
2023/03/20 12:20:38;;;;;;;8.60;3.95;;;9.90;99.90;;;;;;5114402;28;20043;-62
2023/03/20 12:23:13;;;;;;;9.57;3.70;;;9.80;99.90;;;;;;5115813;28;20047;-62
2023/03/20 12:25:47;;;;;;;6.30;3.03;;;9.80;99.90;;;;;;5115387;28;20453;-62
2023/03/20 12:28:20;;;;;;;6.90;3.40;;;9.60;99.90;;;;;;5115730;28;20051;-62
2023/03/20 12:31:03;;;;;;;8.48;4.28;;;9.80;99.90;;;;;;5115860;28;20047;-62
2023/03/20 12:33:40;;;;;;;6.90;3.75;;;9.70;99.90;;;;;;5112483;28;20104;-62
2023/03/20 12:36:13;;;;;;;7.90;4.10;;;9.70;99.90;;;;;;5113035;28;20048;-62
2023/03/20 12:38:41;;;;;;;8.25;4.40;;;9.60;99.90;;;;;;5146511;27;20073;-62
2023/03/20 12:41:15;;;;;;;6.82;4.40;;;9.60;99.90;;;;;;5114834;28;20121;-62
2023/03/20 12:44:13;;;;;;;8.05;4.07;;;9.60;99.90;;;;;;5114325;28;20048;-62
2023/03/20 12:46:45;;;;;;;8.20;4.70;;;9.60;99.90;;;;;;5112854;28;20047;-62
2023/03/20 12:49:26;;;;;;;15.80;5.47;;;9.50;99.90;;;;;;5114288;28;20039;-62
2023/03/20 12:52:03;;;;;;;10.90;5.15;;;9.40;99.90;;;;;;5112150;28;20130;-62
2023/03/20 12:54:47;;;;;;;10.27;5.28;;;9.40;99.90;;;;;;5111913;28;20056;-62
2023/03/20 12:57:23;;;;;;;9.25;5.00;;;9.30;99.90;;;;;;5148252;27;20503;-62
2023/03/20 13:00:15;;;;;;;9.80;5.10;;;9.30;99.90;;;;;;5114306;28;20514;-62
2023/03/20 13:02:56;;;;;;;7.65;5.30;;;9.20;99.90;;;;;;5113974;28;20127;-62
2023/03/20 13:05:32;;;;;;;8.93;5.43;;;9.10;99.90;;;;;;5111857;28;20063;-62